sensor_id;sensor_type;location;lat;lon;timestamp;P1;durP1;ratioP1;P2;durP2;ratioP2
71562;SDS011;59391;52.504;13.438;2023-07-31T11:23:15;7.23;;;4.60;;
71562;SDS011;59391;52.504;13.438;2023-07-31T11:25:43;8.15;;;4.63;;
71562;SDS011;59391;52.504;13.438;2023-07-31T11:30:37;8.88;;;4.63;;
71562;SDS011;59391;52.504;13.438;2023-07-31T11:33:06;9.73;;;4.90;;
71562;SDS011;59391;52.504;13.438;2023-07-31T11:35:34;9.43;;;5.53;;
71562;SDS011;59391;52.504;13.438;2023-07-31T11:38:06;7.43;;;4.00;;
71562;SDS011;59391;52.504;13.438;2023-07-31T11:40:40;5.77;;;3.40;;
71562;SDS011;59391;52.504;13.438;2023-07-31T11:43:09;8.43;;;3.90;;
71562;SDS011;59391;52.504;13.438;2023-07-31T11:45:36;8.02;;;4.28;;
71562;SDS011;59391;52.504;13.438;2023-07-31T11:48:04;7.90;;;4.57;;
71562;SDS011;59391;52.504;13.438;2023-07-31T11:50:30;9.20;;;4.30;;
71562;SDS011;59391;52.504;13.438;2023-07-31T11:53:01;7.03;;;4.25;;
71562;SDS011;59391;52.504;13.438;2023-07-31T11:55:33;7.50;;;4.28;;
71562;SDS011;59391;52.504;13.438;2023-07-31T11:58:00;7.22;;;3.95;;
71562;SDS011;59391;52.504;13.438;2023-07-31T12:00:26;7.30;;;3.93;;
71562;SDS011;59391;52.504;13.438;2023-07-31T12:02:52;6.70;;;3.63;;
71562;SDS011;59391;52.504;13.438;2023-07-31T12:05:18;7.72;;;3.90;;
71562;SDS011;59391;52.504;13.438;2023-07-31T12:07:48;7.22;;;3.80;;
71562;SDS011;59391;52.504;13.438;2023-07-31T12:10:24;6.68;;;4.10;;
71562;SDS011;59391;52.504;13.438;2023-07-31T12:12:58;8.50;;;4.20;;
71562;SDS011;59391;52.504;13.438;2023-07-31T12:15:29;6.13;;;3.75;;
71562;SDS011;59391;52.504;13.438;2023-07-31T12:17:58;7.18;;;4.25;;
71562;SDS011;59391;52.504;13.438;2023-07-31T12:20:23;7.18;;;3.83;;
71562;SDS011;59391;52.504;13.438;2023-07-31T12:22:49;12.23;;;4.40;;
71562;SDS011;59391;52.504;13.438;2023-07-31T12:25:15;7.30;;;3.97;;
71562;SDS011;59391;52.504;13.438;2023-07-31T12:27:43;6.18;;;3.60;;
71562;SDS011;59391;52.504;13.438;2023-07-31T12:30:26;7.13;;;3.63;;
71562;SDS011;59391;52.504;13.438;2023-07-31T12:32:57;6.70;;;3.70;;
71562;SDS011;59391;52.504;13.438;2023-07-31T12:35:34;6.35;;;3.78;;
71562;SDS011;59391;52.504;13.438;2023-07-31T12:38:02;6.47;;;3.70;;
71562;SDS011;59391;52.504;13.438;2023-07-31T12:40:28;6.40;;;3.50;;
71562;SDS011;59391;52.504;13.438;2023-07-31T12:42:53;7.07;;;3.75;;
71562;SDS011;59391;52.504;13.438;2023-07-31T12:45:19;8.27;;;3.90;;
71562;SDS011;59391;52.504;13.438;2023-07-31T12:47:46;6.88;;;3.50;;
71562;SDS011;59391;52.504;13.438;2023-07-31T12:50:11;7.67;;;3.50;;
71562;SDS011;59391;52.504;13.438;2023-07-31T12:52:37;7.60;;;3.50;;
71562;SDS011;59391;52.504;13.438;2023-07-31T12:55:03;5.97;;;3.47;;
71562;SDS011;59391;52.504;13.438;2023-07-31T12:57:29;9.17;;;3.47;;
71562;SDS011;59391;52.504;13.438;2023-07-31T12:59:55;6.18;;;3.30;;
71562;SDS011;59391;52.504;13.438;2023-07-31T13:02:21;5.43;;;2.75;;
71562;SDS011;59391;52.504;13.438;2023-07-31T13:04:47;5.47;;;3.00;;
71562;SDS011;59391;52.504;13.438;2023-07-31T13:07:15;5.03;;;2.80;;
71562;SDS011;59391;52.504;13.438;2023-07-31T13:09:40;6.82;;;2.63;;
71562;SDS011;59391;52.504;13.438;2023-07-31T13:12:06;5.50;;;3.17;;
71562;SDS011;59391;52.504;13.438;2023-07-31T13:14:32;6.45;;;2.90;;
71562;SDS011;59391;52.504;13.438;2023-07-31T13:16:58;4.73;;;2.80;;
71562;SDS011;59391;52.504;13.438;2023-07-31T13:19:24;6.10;;;3.00;;
71562;SDS011;59391;52.504;13.438;2023-07-31T13:21:49;7.47;;;3.17;;
71562;SDS011;59391;52.504;13.438;2023-07-31T13:24:15;5.50;;;3.10;;
71562;SDS011;59391;52.504;13.438;2023-07-31T13:26:40;6.25;;;3.22;;
71562;SDS011;59391;52.504;13.438;2023-07-31T13:29:06;6.33;;;3.37;;
71562;SDS011;59391;52.504;13.438;2023-07-31T13:31:32;6.00;;;3.20;;
71562;SDS011;59391;52.504;13.438;2023-07-31T13:33:57;6.83;;;3.33;;
71562;SDS011;59391;52.504;13.438;2023-07-31T13:36:23;5.27;;;3.67;;
71562;SDS011;59391;52.504;13.438;2023-07-31T13:38:48;6.88;;;3.72;;
71562;SDS011;59391;52.504;13.438;2023-07-31T13:41:14;5.60;;;3.60;;
71562;SDS011;59391;52.504;13.438;2023-07-31T13:43:40;6.10;;;3.75;;
71562;SDS011;59391;52.504;13.438;2023-07-31T13:46:06;6.30;;;3.77;;
71562;SDS011;59391;52.504;13.438;2023-07-31T13:48:35;7.78;;;3.95;;
71562;SDS011;59391;52.504;13.438;2023-07-31T13:51:01;7.78;;;3.70;;
71562;SDS011;59391;52.504;13.438;2023-07-31T13:53:27;6.60;;;3.47;;
71562;SDS011;59391;52.504;13.438;2023-07-31T13:55:53;6.87;;;3.50;;
71562;SDS011;59391;52.504;13.438;2023-07-31T13:58:20;7.22;;;4.20;;
71562;SDS011;59391;52.504;13.438;2023-07-31T14:00:46;6.93;;;3.90;;
71562;SDS011;59391;52.504;13.438;2023-07-31T14:03:11;8.53;;;3.87;;
71562;SDS011;59391;52.504;13.438;2023-07-31T14:05:37;7.13;;;3.80;;
71562;SDS011;59391;52.504;13.438;2023-07-31T14:08:03;6.28;;;3.70;;
71562;SDS011;59391;52.504;13.438;2023-07-31T14:10:28;7.40;;;3.50;;
71562;SDS011;59391;52.504;13.438;2023-07-31T14:12:54;7.47;;;3.83;;
71562;SDS011;59391;52.504;13.438;2023-07-31T14:15:20;5.50;;;3.30;;
71562;SDS011;59391;52.504;13.438;2023-07-31T14:17:45;7.03;;;3.92;;
71562;SDS011;59391;52.504;13.438;2023-07-31T14:20:11;6.93;;;3.77;;
71562;SDS011;59391;52.504;13.438;2023-07-31T14:22:37;7.10;;;4.03;;
71562;SDS011;59391;52.504;13.438;2023-07-31T14:25:03;6.25;;;3.42;;
71562;SDS011;59391;52.504;13.438;2023-07-31T14:27:29;6.88;;;3.38;;
71562;SDS011;59391;52.504;13.438;2023-07-31T14:29:55;6.43;;;3.80;;
71562;SDS011;59391;52.504;13.438;2023-07-31T14:32:21;7.37;;;4.03;;
71562;SDS011;59391;52.504;13.438;2023-07-31T14:34:48;6.10;;;3.70;;
71562;SDS011;59391;52.504;13.438;2023-07-31T14:37:14;6.80;;;3.80;;
71562;SDS011;59391;52.504;13.438;2023-07-31T14:39:39;7.17;;;3.70;;
71562;SDS011;59391;52.504;13.438;2023-07-31T14:42:05;7.85;;;3.40;;
71562;SDS011;59391;52.504;13.438;2023-07-31T14:44:31;7.07;;;3.23;;
71562;SDS011;59391;52.504;13.438;2023-07-31T14:46:56;7.30;;;3.70;;
71562;SDS011;59391;52.504;13.438;2023-07-31T14:49:22;7.03;;;3.10;;
71562;SDS011;59391;52.504;13.438;2023-07-31T14:51:48;7.57;;;3.92;;
71562;SDS011;59391;52.504;13.438;2023-07-31T14:54:13;7.07;;;3.53;;
71562;SDS011;59391;52.504;13.438;2023-07-31T14:56:39;7.83;;;3.60;;
71562;SDS011;59391;52.504;13.438;2023-07-31T14:59:04;6.80;;;3.90;;
71562;SDS011;59391;52.504;13.438;2023-07-31T15:01:30;6.67;;;3.70;;
71562;SDS011;59391;52.504;13.438;2023-07-31T15:03:56;7.40;;;3.70;;
71562;SDS011;59391;52.504;13.438;2023-07-31T15:06:21;7.10;;;3.80;;
71562;SDS011;59391;52.504;13.438;2023-07-31T15:08:47;5.80;;;3.73;;
71562;SDS011;59391;52.504;13.438;2023-07-31T15:11:12;5.85;;;3.60;;
71562;SDS011;59391;52.504;13.438;2023-07-31T15:13:40;6.95;;;4.00;;
71562;SDS011;59391;52.504;13.438;2023-07-31T15:16:06;6.20;;;3.33;;
71562;SDS011;59391;52.504;13.438;2023-07-31T15:18:31;6.70;;;3.80;;
71562;SDS011;59391;52.504;13.438;2023-07-31T15:20:57;7.20;;;3.80;;
71562;SDS011;59391;52.504;13.438;2023-07-31T15:23:23;6.33;;;3.67;;
71562;SDS011;59391;52.504;13.438;2023-07-31T15:25:48;6.30;;;3.90;;
71562;SDS011;59391;52.504;13.438;2023-07-31T15:28:14;8.70;;;3.70;;
71562;SDS011;59391;52.504;13.438;2023-07-31T15:30:40;7.10;;;4.05;;
71562;SDS011;59391;52.504;13.438;2023-07-31T15:33:06;8.07;;;3.87;;
71562;SDS011;59391;52.504;13.438;2023-07-31T15:35:31;6.18;;;3.70;;
71562;SDS011;59391;52.504;13.438;2023-07-31T15:37:57;8.37;;;4.20;;
71562;SDS011;59391;52.504;13.438;2023-07-31T15:40:23;7.07;;;4.00;;
71562;SDS011;59391;52.504;13.438;2023-07-31T15:42:48;7.00;;;3.73;;
71562;SDS011;59391;52.504;13.438;2023-07-31T15:45:14;6.60;;;3.90;;
71562;SDS011;59391;52.504;13.438;2023-07-31T15:47:39;6.67;;;4.30;;
71562;SDS011;59391;52.504;13.438;2023-07-31T15:50:05;6.70;;;3.87;;
71562;SDS011;59391;52.504;13.438;2023-07-31T15:52:31;6.70;;;3.97;;
71562;SDS011;59391;52.504;13.438;2023-07-31T15:54:57;8.27;;;4.17;;
71562;SDS011;59391;52.504;13.438;2023-07-31T15:57:23;6.67;;;4.27;;
71562;SDS011;59391;52.504;13.438;2023-07-31T15:59:48;7.00;;;4.60;;
71562;SDS011;59391;52.504;13.438;2023-07-31T16:02:14;7.75;;;4.57;;
71562;SDS011;59391;52.504;13.438;2023-07-31T16:04:39;7.10;;;4.20;;
71562;SDS011;59391;52.504;13.438;2023-07-31T16:07:05;7.55;;;4.00;;
71562;SDS011;59391;52.504;13.438;2023-07-31T16:09:31;8.30;;;4.33;;
71562;SDS011;59391;52.504;13.438;2023-07-31T16:11:57;6.70;;;4.15;;
71562;SDS011;59391;52.504;13.438;2023-07-31T16:14:22;7.17;;;4.40;;
71562;SDS011;59391;52.504;13.438;2023-07-31T16:16:48;6.90;;;3.90;;
71562;SDS011;59391;52.504;13.438;2023-07-31T16:19:14;8.63;;;4.50;;
71562;SDS011;59391;52.504;13.438;2023-07-31T16:21:39;7.65;;;4.57;;
71562;SDS011;59391;52.504;13.438;2023-07-31T16:24:05;9.33;;;4.50;;
71562;SDS011;59391;52.504;13.438;2023-07-31T16:26:31;7.22;;;4.20;;
71562;SDS011;59391;52.504;13.438;2023-07-31T16:28:58;5.83;;;3.40;;
71562;SDS011;59391;52.504;13.438;2023-07-31T16:31:23;6.63;;;3.92;;
71562;SDS011;59391;52.504;13.438;2023-07-31T16:33:50;6.60;;;4.28;;
71562;SDS011;59391;52.504;13.438;2023-07-31T16:36:16;8.05;;;3.97;;
71562;SDS011;59391;52.504;13.438;2023-07-31T16:38:44;8.73;;;3.50;;
71562;SDS011;59391;52.504;13.438;2023-07-31T16:41:10;6.25;;;3.72;;
71562;SDS011;59391;52.504;13.438;2023-07-31T16:43:35;6.87;;;3.37;;
71562;SDS011;59391;52.504;13.438;2023-07-31T16:46:01;6.97;;;3.83;;
71562;SDS011;59391;52.504;13.438;2023-07-31T16:48:27;6.43;;;3.43;;
71562;SDS011;59391;52.504;13.438;2023-07-31T16:50:52;6.82;;;3.47;;
71562;SDS011;59391;52.504;13.438;2023-07-31T16:53:18;7.37;;;3.63;;
71562;SDS011;59391;52.504;13.438;2023-07-31T16:55:44;7.15;;;3.50;;
71562;SDS011;59391;52.504;13.438;2023-07-31T16:58:09;6.37;;;3.40;;
71562;SDS011;59391;52.504;13.438;2023-07-31T17:00:35;6.38;;;3.50;;
71562;SDS011;59391;52.504;13.438;2023-07-31T17:03:01;6.00;;;3.63;;
71562;SDS011;59391;52.504;13.438;2023-07-31T17:05:28;8.70;;;3.78;;
71562;SDS011;59391;52.504;13.438;2023-07-31T17:07:54;6.13;;;3.53;;
71562;SDS011;59391;52.504;13.438;2023-07-31T17:10:19;7.43;;;3.63;;
71562;SDS011;59391;52.504;13.438;2023-07-31T17:12:45;5.77;;;3.47;;
71562;SDS011;59391;52.504;13.438;2023-07-31T17:15:11;6.80;;;3.72;;
71562;SDS011;59391;52.504;13.438;2023-07-31T17:17:36;5.80;;;3.60;;
71562;SDS011;59391;52.504;13.438;2023-07-31T17:20:02;7.43;;;4.10;;
71562;SDS011;59391;52.504;13.438;2023-07-31T17:22:28;6.57;;;3.60;;
71562;SDS011;59391;52.504;13.438;2023-07-31T17:24:54;6.10;;;3.20;;
71562;SDS011;59391;52.504;13.438;2023-07-31T17:27:19;5.33;;;3.50;;
71562;SDS011;59391;52.504;13.438;2023-07-31T17:29:48;8.05;;;3.67;;
71562;SDS011;59391;52.504;13.438;2023-07-31T17:32:14;6.43;;;3.65;;
71562;SDS011;59391;52.504;13.438;2023-07-31T17:34:40;7.87;;;3.20;;
71562;SDS011;59391;52.504;13.438;2023-07-31T17:37:07;7.18;;;3.75;;
71562;SDS011;59391;52.504;13.438;2023-07-31T17:39:33;6.88;;;3.80;;
71562;SDS011;59391;52.504;13.438;2023-07-31T17:42:00;7.03;;;4.03;;
71562;SDS011;59391;52.504;13.438;2023-07-31T17:44:26;7.30;;;3.90;;
71562;SDS011;59391;52.504;13.438;2023-07-31T17:46:51;8.10;;;3.83;;
71562;SDS011;59391;52.504;13.438;2023-07-31T17:49:17;6.50;;;3.60;;
71562;SDS011;59391;52.504;13.438;2023-07-31T17:51:43;5.70;;;3.20;;
71562;SDS011;59391;52.504;13.438;2023-07-31T17:54:08;7.70;;;4.47;;
71562;SDS011;59391;52.504;13.438;2023-07-31T17:56:34;8.97;;;5.07;;
71562;SDS011;59391;52.504;13.438;2023-07-31T17:59:02;8.07;;;4.80;;
71562;SDS011;59391;52.504;13.438;2023-07-31T18:01:30;7.75;;;4.32;;
71562;SDS011;59391;52.504;13.438;2023-07-31T18:03:55;9.33;;;5.87;;
71562;SDS011;59391;52.504;13.438;2023-07-31T18:06:21;10.40;;;6.13;;
71562;SDS011;59391;52.504;13.438;2023-07-31T18:08:47;10.97;;;6.50;;
71562;SDS011;59391;52.504;13.438;2023-07-31T18:11:12;8.48;;;5.25;;
71562;SDS011;59391;52.504;13.438;2023-07-31T18:13:39;8.10;;;4.53;;
71562;SDS011;59391;52.504;13.438;2023-07-31T18:16:05;8.25;;;4.20;;
71562;SDS011;59391;52.504;13.438;2023-07-31T18:18:30;6.90;;;4.20;;
71562;SDS011;59391;52.504;13.438;2023-07-31T18:20:56;6.37;;;3.67;;
71562;SDS011;59391;52.504;13.438;2023-07-31T18:23:24;7.47;;;3.63;;
71562;SDS011;59391;52.504;13.438;2023-07-31T18:25:50;6.15;;;3.65;;
71562;SDS011;59391;52.504;13.438;2023-07-31T18:28:16;7.30;;;3.40;;
71562;SDS011;59391;52.504;13.438;2023-07-31T18:30:41;7.37;;;3.73;;
71562;SDS011;59391;52.504;13.438;2023-07-31T18:33:07;6.10;;;3.50;;
71562;SDS011;59391;52.504;13.438;2023-07-31T18:35:37;6.38;;;3.50;;
71562;SDS011;59391;52.504;13.438;2023-07-31T18:38:03;5.03;;;3.15;;
71562;SDS011;59391;52.504;13.438;2023-07-31T18:40:29;6.70;;;3.40;;
71562;SDS011;59391;52.504;13.438;2023-07-31T18:42:59;6.20;;;3.40;;
71562;SDS011;59391;52.504;13.438;2023-07-31T18:45:24;5.70;;;3.47;;
71562;SDS011;59391;52.504;13.438;2023-07-31T18:47:50;7.35;;;3.50;;
71562;SDS011;59391;52.504;13.438;2023-07-31T18:50:15;7.23;;;3.30;;
71562;SDS011;59391;52.504;13.438;2023-07-31T18:52:41;6.37;;;3.20;;
71562;SDS011;59391;52.504;13.438;2023-07-31T18:55:07;5.97;;;3.80;;
71562;SDS011;59391;52.504;13.438;2023-07-31T18:57:32;5.45;;;3.53;;
71562;SDS011;59391;52.504;13.438;2023-07-31T18:59:58;8.67;;;3.70;;
71562;SDS011;59391;52.504;13.438;2023-07-31T19:02:24;7.13;;;3.23;;
71562;SDS011;59391;52.504;13.438;2023-07-31T19:04:49;6.22;;;3.38;;
71562;SDS011;59391;52.504;13.438;2023-07-31T19:07:16;6.07;;;3.88;;
71562;SDS011;59391;52.504;13.438;2023-07-31T19:09:42;8.00;;;3.80;;
71562;SDS011;59391;52.504;13.438;2023-07-31T19:12:07;5.90;;;3.67;;
71562;SDS011;59391;52.504;13.438;2023-07-31T19:14:33;7.93;;;3.92;;
71562;SDS011;59391;52.504;13.438;2023-07-31T19:17:00;6.47;;;3.90;;
71562;SDS011;59391;52.504;13.438;2023-07-31T19:19:25;5.87;;;3.90;;
71562;SDS011;59391;52.504;13.438;2023-07-31T19:21:51;8.02;;;3.80;;
71562;SDS011;59391;52.504;13.438;2023-07-31T19:24:17;7.47;;;4.20;;
71562;SDS011;59391;52.504;13.438;2023-07-31T19:26:42;6.63;;;3.78;;
71562;SDS011;59391;52.504;13.438;2023-07-31T19:29:09;6.80;;;3.90;;
71562;SDS011;59391;52.504;13.438;2023-07-31T19:31:36;7.32;;;4.30;;
71562;SDS011;59391;52.504;13.438;2023-07-31T19:34:02;7.47;;;4.30;;
71562;SDS011;59391;52.504;13.438;2023-07-31T19:36:28;7.17;;;4.50;;
71562;SDS011;59391;52.504;13.438;2023-07-31T19:38:53;7.10;;;4.23;;
71562;SDS011;59391;52.504;13.438;2023-07-31T19:41:19;7.63;;;4.63;;
71562;SDS011;59391;52.504;13.438;2023-07-31T19:43:45;10.17;;;4.80;;
71562;SDS011;59391;52.504;13.438;2023-07-31T19:46:11;8.63;;;5.00;;
71562;SDS011;59391;52.504;13.438;2023-07-31T19:48:36;10.95;;;4.78;;
71562;SDS011;59391;52.504;13.438;2023-07-31T19:51:02;8.50;;;4.90;;
71562;SDS011;59391;52.504;13.438;2023-07-31T19:53:29;8.65;;;4.70;;
71562;SDS011;59391;52.504;13.438;2023-07-31T19:55:54;9.53;;;5.10;;
71562;SDS011;59391;52.504;13.438;2023-07-31T19:58:21;7.80;;;5.00;;
71562;SDS011;59391;52.504;13.438;2023-07-31T20:00:47;9.57;;;4.82;;
71562;SDS011;59391;52.504;13.438;2023-07-31T20:03:13;10.00;;;5.17;;
71562;SDS011;59391;52.504;13.438;2023-07-31T20:05:38;7.30;;;4.30;;
71562;SDS011;59391;52.504;13.438;2023-07-31T20:08:06;8.13;;;4.72;;
71562;SDS011;59391;52.504;13.438;2023-07-31T20:10:31;9.82;;;4.60;;
71562;SDS011;59391;52.504;13.438;2023-07-31T20:12:59;7.70;;;4.80;;
71562;SDS011;59391;52.504;13.438;2023-07-31T20:15:25;8.93;;;5.15;;
71562;SDS011;59391;52.504;13.438;2023-07-31T20:17:50;7.50;;;4.63;;
71562;SDS011;59391;52.504;13.438;2023-07-31T20:20:16;9.60;;;5.45;;
71562;SDS011;59391;52.504;13.438;2023-07-31T20:22:42;9.83;;;5.37;;
71562;SDS011;59391;52.504;13.438;2023-07-31T20:25:08;9.52;;;5.35;;
71562;SDS011;59391;52.504;13.438;2023-07-31T20:27:34;9.90;;;4.93;;
71562;SDS011;59391;52.504;13.438;2023-07-31T20:29:59;10.45;;;4.93;;
71562;SDS011;59391;52.504;13.438;2023-07-31T20:32:25;9.98;;;5.25;;
71562;SDS011;59391;52.504;13.438;2023-07-31T20:34:51;10.23;;;5.47;;
71562;SDS011;59391;52.504;13.438;2023-07-31T20:37:17;8.35;;;5.07;;
71562;SDS011;59391;52.504;13.438;2023-07-31T20:39:42;8.57;;;4.83;;
71562;SDS011;59391;52.504;13.438;2023-07-31T20:42:08;8.47;;;5.00;;
71562;SDS011;59391;52.504;13.438;2023-07-31T20:44:38;8.95;;;5.55;;
71562;SDS011;59391;52.504;13.438;2023-07-31T20:47:04;9.98;;;5.32;;
71562;SDS011;59391;52.504;13.438;2023-07-31T20:49:30;9.10;;;4.97;;
71562;SDS011;59391;52.504;13.438;2023-07-31T20:51:56;8.40;;;5.07;;
71562;SDS011;59391;52.504;13.438;2023-07-31T20:54:21;9.97;;;5.20;;
71562;SDS011;59391;52.504;13.438;2023-07-31T20:56:47;8.57;;;4.77;;
71562;SDS011;59391;52.504;13.438;2023-07-31T20:59:14;8.63;;;4.70;;
71562;SDS011;59391;52.504;13.438;2023-07-31T21:01:40;10.23;;;5.03;;
71562;SDS011;59391;52.504;13.438;2023-07-31T21:04:07;8.48;;;4.90;;
71562;SDS011;59391;52.504;13.438;2023-07-31T21:06:35;9.65;;;5.30;;
71562;SDS011;59391;52.504;13.438;2023-07-31T21:09:02;9.73;;;5.10;;
71562;SDS011;59391;52.504;13.438;2023-07-31T21:11:28;8.33;;;5.20;;
71562;SDS011;59391;52.504;13.438;2023-07-31T21:13:57;8.30;;;4.97;;
71562;SDS011;59391;52.504;13.438;2023-07-31T21:16:24;7.85;;;5.10;;
71562;SDS011;59391;52.504;13.438;2023-07-31T21:18:50;9.00;;;5.15;;
71562;SDS011;59391;52.504;13.438;2023-07-31T21:21:18;8.60;;;4.85;;
71562;SDS011;59391;52.504;13.438;2023-07-31T21:23:44;14.17;;;8.73;;
71562;SDS011;59391;52.504;13.438;2023-07-31T21:26:09;10.70;;;4.87;;
71562;SDS011;59391;52.504;13.438;2023-07-31T21:28:35;7.37;;;4.67;;
71562;SDS011;59391;52.504;13.438;2023-07-31T21:31:14;9.10;;;4.93;;
71562;SDS011;59391;52.504;13.438;2023-07-31T21:33:41;9.75;;;5.38;;
71562;SDS011;59391;52.504;13.438;2023-07-31T21:36:07;7.13;;;4.72;;
71562;SDS011;59391;52.504;13.438;2023-07-31T21:38:32;9.13;;;4.97;;
71562;SDS011;59391;52.504;13.438;2023-07-31T21:40:58;9.82;;;4.80;;
71562;SDS011;59391;52.504;13.438;2023-07-31T21:43:25;8.38;;;5.03;;
71562;SDS011;59391;52.504;13.438;2023-07-31T21:45:50;8.87;;;4.57;;
71562;SDS011;59391;52.504;13.438;2023-07-31T21:48:16;8.27;;;5.00;;
71562;SDS011;59391;52.504;13.438;2023-07-31T21:50:43;8.50;;;5.00;;
71562;SDS011;59391;52.504;13.438;2023-07-31T21:53:09;7.47;;;4.22;;
71562;SDS011;59391;52.504;13.438;2023-07-31T21:55:35;11.63;;;5.05;;
71562;SDS011;59391;52.504;13.438;2023-07-31T21:58:00;8.37;;;5.17;;
71562;SDS011;59391;52.504;13.438;2023-07-31T22:00:26;9.47;;;4.93;;
71562;SDS011;59391;52.504;13.438;2023-07-31T22:02:52;10.30;;;5.38;;
71562;SDS011;59391;52.504;13.438;2023-07-31T22:05:18;9.25;;;5.30;;
71562;SDS011;59391;52.504;13.438;2023-07-31T22:07:44;8.03;;;4.83;;
71562;SDS011;59391;52.504;13.438;2023-07-31T22:10:10;10.38;;;4.88;;
71562;SDS011;59391;52.504;13.438;2023-07-31T22:12:35;8.17;;;4.93;;
71562;SDS011;59391;52.504;13.438;2023-07-31T22:15:01;8.97;;;5.20;;
71562;SDS011;59391;52.504;13.438;2023-07-31T22:17:27;9.23;;;5.13;;
71562;SDS011;59391;52.504;13.438;2023-07-31T22:19:52;9.05;;;4.97;;
71562;SDS011;59391;52.504;13.438;2023-07-31T22:22:18;7.60;;;4.87;;
71562;SDS011;59391;52.504;13.438;2023-07-31T22:24:44;9.13;;;5.27;;
71562;SDS011;59391;52.504;13.438;2023-07-31T22:27:12;10.83;;;5.10;;
71562;SDS011;59391;52.504;13.438;2023-07-31T22:29:39;8.68;;;4.80;;
71562;SDS011;59391;52.504;13.438;2023-07-31T22:32:06;9.20;;;4.93;;
71562;SDS011;59391;52.504;13.438;2023-07-31T22:34:32;8.43;;;4.97;;
71562;SDS011;59391;52.504;13.438;2023-07-31T22:36:58;7.60;;;4.57;;
71562;SDS011;59391;52.504;13.438;2023-07-31T22:39:23;8.33;;;5.00;;
71562;SDS011;59391;52.504;13.438;2023-07-31T22:41:49;9.25;;;5.22;;
71562;SDS011;59391;52.504;13.438;2023-07-31T22:44:15;9.13;;;5.23;;
71562;SDS011;59391;52.504;13.438;2023-07-31T22:46:40;13.32;;;7.35;;
71562;SDS011;59391;52.504;13.438;2023-07-31T22:49:06;10.77;;;5.77;;
71562;SDS011;59391;52.504;13.438;2023-07-31T22:51:31;8.13;;;5.15;;
71562;SDS011;59391;52.504;13.438;2023-07-31T22:53:58;12.43;;;7.07;;
71562;SDS011;59391;52.504;13.438;2023-07-31T22:56:23;9.93;;;5.10;;
71562;SDS011;59391;52.504;13.438;2023-07-31T22:58:49;9.13;;;4.78;;
71562;SDS011;59391;52.504;13.438;2023-07-31T23:01:15;8.70;;;4.70;;
71562;SDS011;59391;52.504;13.438;2023-07-31T23:03:42;8.55;;;5.20;;
71562;SDS011;59391;52.504;13.438;2023-07-31T23:06:08;9.18;;;5.30;;
71562;SDS011;59391;52.504;13.438;2023-07-31T23:08:34;10.30;;;5.33;;
71562;SDS011;59391;52.504;13.438;2023-07-31T23:11:01;9.07;;;5.30;;
71562;SDS011;59391;52.504;13.438;2023-07-31T23:13:27;8.57;;;4.72;;
71562;SDS011;59391;52.504;13.438;2023-07-31T23:15:52;7.63;;;4.60;;
71562;SDS011;59391;52.504;13.438;2023-07-31T23:18:18;8.53;;;4.87;;
71562;SDS011;59391;52.504;13.438;2023-07-31T23:20:51;9.82;;;5.00;;
71562;SDS011;59391;52.504;13.438;2023-07-31T23:23:18;9.35;;;4.80;;
71562;SDS011;59391;52.504;13.438;2023-07-31T23:25:47;7.68;;;4.78;;
71562;SDS011;59391;52.504;13.438;2023-07-31T23:28:13;9.23;;;4.80;;
71562;SDS011;59391;52.504;13.438;2023-07-31T23:30:39;8.13;;;4.90;;
71562;SDS011;59391;52.504;13.438;2023-07-31T23:33:05;10.02;;;5.40;;
71562;SDS011;59391;52.504;13.438;2023-07-31T23:35:31;10.50;;;4.67;;
71562;SDS011;59391;52.504;13.438;2023-07-31T23:37:57;9.55;;;4.72;;
71562;SDS011;59391;52.504;13.438;2023-07-31T23:40:23;6.85;;;4.57;;
71562;SDS011;59391;52.504;13.438;2023-07-31T23:42:50;8.50;;;4.90;;
71562;SDS011;59391;52.504;13.438;2023-07-31T23:45:16;11.02;;;5.45;;
71562;SDS011;59391;52.504;13.438;2023-07-31T23:47:41;9.07;;;5.00;;
71562;SDS011;59391;52.504;13.438;2023-07-31T23:50:07;9.98;;;5.80;;
71562;SDS011;59391;52.504;13.438;2023-07-31T23:52:37;8.93;;;4.90;;
71562;SDS011;59391;52.504;13.438;2023-07-31T23:55:03;8.47;;;4.97;;
71562;SDS011;59391;52.504;13.438;2023-07-31T23:57:30;7.68;;;4.95;;
71562;SDS011;59391;52.504;13.438;2023-07-31T23:59:56;8.73;;;5.22;;
